Aviation Digital Data Service (ADDS)

Output produced by METARs form (2237 UTC 20 October 2018)
found at http://www.aviationweather.gov/metar/data/
 
METAR text: EGLL 202220Z AUTO VRB03KT 9999 NCD 13/11 Q1030 NOSIG
Conditions at: EGLL (LONDON/HEATHROW , GB) observed 2220 UTC 20 October 2018
Temperature: 13.0°C (55°F)
Dewpoint: 11.0°C (52°F) [RH = 88%]
Pressure (altimeter): 30.41 inches Hg (1030.0 mb)
Winds: variable direction winds at 3 MPH (3 knots; 1.5 m/s)
Visibility: 6 or more miles (10+ km)
Ceiling: at least 12,000 feet AGL
Clouds: sky clear below 12,000 feet AGL
Weather: no significant weather observed at this time

METAR text: EGLL 202150Z AUTO 29004KT 9999 NCD 13/11 Q1030 NOSIG
Conditions at: EGLL (LONDON/HEATHROW , GB) observed 2150 UTC 20 October 2018
Temperature: 13.0°C (55°F)
Dewpoint: 11.0°C (52°F) [RH = 88%]
Pressure (altimeter): 30.41 inches Hg (1030.0 mb)
Winds: from the WNW (290 degrees) at 5 MPH (4 knots; 2.1 m/s)
Visibility: 6 or more miles (10+ km)
Ceiling: at least 12,000 feet AGL
Clouds: sky clear below 12,000 feet AGL
Weather: no significant weather observed at this time

Forecast for: EGLL (LONDON/HEATHROW , GB)
Text: TAF EGLL 201653Z 2018/2124 24005KT CAVOK
Forecast period: 1800 to 2100 UTC 20 October 2018
Forecast type: FROM: standard forecast or significant change
Winds: from the WSW (240 degrees) at 6 MPH (5 knots; 2.6 m/s)
Visibility: 6 or more miles 10+ km)
Ceiling: unknown
Clouds: missing
Weather: NSW  (no significant weather)
Text: BECMG 2021/2024 6000
Forecast period: 2100 UTC 20 October 2018 to 0000 UTC 21 October 2018
Forecast type: BECOMING: Conditions expected to become as follows by 0000 UTC 21 October 2018
Winds: from the WSW (240 degrees) at 6 MPH (5 knots; 2.6 m/s)
Visibility: 4 miles (6 km)
Ceiling: unknown
Clouds: missing
Weather: NSW  (no significant weather)
Text: BECMG 2100/2103 3000 BR
Forecast period: 0000 to 0900 UTC 21 October 2018
Forecast type: BECOMING: Conditions expected to become as follows by 0300 UTC 21 October 2018
Winds: from the WSW (240 degrees) at 6 MPH (5 knots; 2.6 m/s)
Visibility: 1.86 miles (2.99 km)
Ceiling: unknown
Clouds: missing
Weather: BR  (mist)
Text: TEMPO 2103/2109 1200 BCFG BKN002
Forecast period: 0300 to 0900 UTC 21 October 2018
Forecast type: TEMPORARY: The following changes expected for less than half the time period
Visibility: 0.75 miles (1.21 km)
Ceiling: 200 feet AGL
Clouds: broken clouds at 200 feet AGL
Weather: BCFG  (patches of fog)
Text: PROB40 2103/2108 0400 FG VV///
Forecast period: 0300 to 0800 UTC 21 October 2018
Forecast type: PROBABLE: 40 percent likelihood of the following during this time
Visibility: 0.25 miles (0.40 km)
Ceiling: unknown
Clouds: missing
Weather: FG  (fog)
Text: BECMG 2109/2112 9999 NSW
Forecast period: 0900 to 1800 UTC 21 October 2018
Forecast type: BECOMING: Conditions expected to become as follows by 1200 UTC 21 October 2018
Winds: from the WSW (240 degrees) at 6 MPH (5 knots; 2.6 m/s)
Visibility: 6 or more miles 10+ km)
Ceiling: unknown
Clouds: missing
Weather: NSW  (no significant weather)
Text: BECMG 2118/2121 36010KT BKN020
Forecast period: 1800 UTC 21 October 2018 to 0000 UTC 22 October 2018
Forecast type: BECOMING: Conditions expected to become as follows by 2100 UTC 21 October 2018
Winds: from the N (360 degrees) at 12 MPH (10 knots; 5.1 m/s)
Visibility: 6 or more miles 10+ km)
Ceiling: 2000 feet AGL
Clouds: broken clouds at 2000 feet AGL
Weather: NSW  (no significant weather)
Text: TEMPO 2120/2124 6000 -RA BKN012
Forecast period: 2000 UTC 21 October 2018 to 0000 UTC 22 October 2018
Forecast type: TEMPORARY: The following changes expected for less than half the time period
Visibility: 4 miles (6 km)
Ceiling: 1200 feet AGL
Clouds: broken clouds at 1200 feet AGL
Weather: -RA  (light rain)
Text: PROB30
Forecast period: 2100 UTC 21 October 2018 to 0000 UTC 22 October 2018
Forecast type: TEMPORARY: The following changes expected for less than half the time period
Visibility: 1.86 miles (2.99 km)
Ceiling: 800 feet AGL
Clouds: broken clouds at 800 feet AGL
Weather: RA DZ  (moderate rain, moderate drizzle)

METAR text: ZBAA 202230Z 35001MPS 5000 BR NSC 07/06 Q1023 NOSIG
Conditions at: ZBAA (BEIJING/PEKING , CN) observed 2230 UTC 20 October 2018
Temperature: 7.0°C (45°F)
Dewpoint: 6.0°C (43°F) [RH = 93%]
Pressure (altimeter): 30.21 inches Hg (1023.0 mb)
Winds: from the N (350 degrees) at 2 MPH (2 knots; 1.0 m/s)
Visibility: 3 miles ( 5 km)
Ceiling: at least 12,000 feet AGL
Clouds: sky clear below 12,000 feet AGL
Weather: BR  (mist)

METAR text: ZBAA 202200Z 00000MPS 6000 NSC 08/06 Q1023 NOSIG
Conditions at: ZBAA (BEIJING/PEKING , CN) observed 2200 UTC 20 October 2018
Temperature: 8.0°C (46°F)
Dewpoint: 6.0°C (43°F) [RH = 87%]
Pressure (altimeter): 30.21 inches Hg (1023.0 mb)
Winds: calm
Visibility: 4 miles ( 6 km)
Ceiling: at least 12,000 feet AGL
Clouds: sky clear below 12,000 feet AGL
Weather: no significant weather observed at this time

Forecast for: ZBAA (BEIJING/PEKING , CN)
Text: TAF ZBAA 202120Z 2100/2124 18004MPS 5000 BR NSC TX17/2107Z TN04/2121Z
Forecast period: 0000 UTC 21 October 2018 to 0000 UTC 22 October 2018
Forecast type: FROM: standard forecast or significant change
Winds: from the S (180 degrees) at 9 MPH (8 knots; 4.1 m/s)
Visibility: 3 miles (5 km)
Ceiling: unknown
Clouds: missing
Weather: BR  (mist)

METAR text: ZUUU 202200Z 00000MPS 9999 SCT026 14/13 Q1020 NOSIG
Conditions at: ZUUU (CHENGDU , CN) observed 2200 UTC 20 October 2018
Temperature: 14.0°C (57°F)
Dewpoint: 13.0°C (55°F) [RH = 94%]
Pressure (altimeter): 30.12 inches Hg (1020.0 mb)
Winds: calm
Visibility: 6 or more miles (10+ km)
Ceiling: at least 12,000 feet AGL
Clouds: scattered clouds at 2600 feet AGL
Weather: no significant weather observed at this time

Forecast for: ZUUU (CHENGDU , CN)
Text: TAF ZUUU 202001Z 2100/2124 02003MPS 5000 BR SCT040 TX19/2107Z TN13/2122Z
Forecast period: 0000 UTC 21 October 2018 to 0000 UTC 22 October 2018
Forecast type: FROM: standard forecast or significant change
Winds: from the NNE (20 degrees) at 7 MPH (6 knots; 3.1 m/s)
Visibility: 3 miles (5 km)
Ceiling: at least 12,000 feet AGL
Clouds: scattered clouds at 4000 feet AGL
Weather: BR  (mist)

METAR text: ZLXY 202200Z VRB01MPS 3000 BR SCT033 OVC060 10/09 Q1024 NOSIG
Conditions at: ZLXY (XIANYANG , CN) observed 2200 UTC 20 October 2018
Temperature: 10.0°C (50°F)
Dewpoint: 9.0°C (48°F) [RH = 93%]
Pressure (altimeter): 30.24 inches Hg (1024.0 mb)
Winds: variable direction winds at 2 MPH (2 knots; 1.0 m/s)
Visibility: 1.86 miles (2.99 km)
Ceiling: 6000 feet AGL
Clouds: scattered clouds at 3300 feet AGL
overcast cloud deck at 6000 feet AGL
Weather: BR  (mist)

Forecast for: ZLXY (XIANYANG , CN)
Text: TAF ZLXY 201902Z 2100/2124 06003MPS 2400 -RA BR SCT033 OVC060 TX16/2108Z TN06/2123Z
Forecast period: 0000 to 0200 UTC 21 October 2018
Forecast type: FROM: standard forecast or significant change
Winds: from the ENE (60 degrees) at 7 MPH (6 knots; 3.1 m/s)
Visibility: 1.49 miles (2.40 km)
Ceiling: 6000 feet AGL
Clouds: scattered clouds at 3300 feet AGL
overcast cloud deck at 6000 feet AGL
Weather: -RA BR  (light rain, mist)
Text: BECMG 2102/2103 3000 BR
Forecast period: 0200 to 1500 UTC 21 October 2018
Forecast type: BECOMING: Conditions expected to become as follows by 0300 UTC 21 October 2018
Winds: from the ENE (60 degrees) at 7 MPH (6 knots; 3.1 m/s)
Visibility: 1.86 miles (2.99 km)
Ceiling: 6000 feet AGL
Clouds: scattered clouds at 3300 feet AGL
overcast cloud deck at 6000 feet AGL
Weather: BR  (mist)
Text: BECMG 2115/2116 2000 BR
Forecast period: 1500 UTC 21 October 2018 to 0000 UTC 22 October 2018
Forecast type: BECOMING: Conditions expected to become as follows by 1600 UTC 21 October 2018
Winds: from the ENE (60 degrees) at 7 MPH (6 knots; 3.1 m/s)
Visibility: 1.24 miles (2.00 km)
Ceiling: 6000 feet AGL
Clouds: scattered clouds at 3300 feet AGL
overcast cloud deck at 6000 feet AGL
Weather: BR  (mist)

METAR text: ZSPD 202230Z 06003MPS CAVOK 19/13 Q1022 NOSIG
Conditions at: ZSPD (SHANGHAI/PUDONG , CN) observed 2230 UTC 20 October 2018
Temperature: 19.0°C (66°F)
Dewpoint: 13.0°C (55°F) [RH = 68%]
Pressure (altimeter): 30.18 inches Hg (1022.0 mb)
Winds: from the ENE (60 degrees) at 7 MPH (6 knots; 3.1 m/s)
Visibility: 6 or more miles (10+ km)
Ceiling: ceiling and visibility are OK
Clouds: unknown
Weather: no significant weather observed at this time

METAR text: ZSPD 202200Z 06002MPS CAVOK 19/13 Q1022 NOSIG
Conditions at: ZSPD (SHANGHAI/PUDONG , CN) observed 2200 UTC 20 October 2018
Temperature: 19.0°C (66°F)
Dewpoint: 13.0°C (55°F) [RH = 68%]
Pressure (altimeter): 30.18 inches Hg (1022.0 mb)
Winds: from the ENE (60 degrees) at 5 MPH (4 knots; 2.1 m/s)
Visibility: 6 or more miles (10+ km)
Ceiling: ceiling and visibility are OK
Clouds: unknown
Weather: no significant weather observed at this time

Forecast for: ZSPD (SHANGHAI/PUDONG , CN)
Text: TAF ZSPD 202111Z 2100/2124 09004MPS 6000 SCT020 TX21/2106Z TN15/2121Z
Forecast period: 0000 UTC 21 October 2018 to 0000 UTC 22 October 2018
Forecast type: FROM: standard forecast or significant change
Winds: from the E (90 degrees) at 9 MPH (8 knots; 4.1 m/s)
Visibility: 4 miles (6 km)
Ceiling: at least 12,000 feet AGL
Clouds: scattered clouds at 2000 feet AGL
Weather: no significant weather forecast for this period

METAR text: ZSSS 202230Z 06002MPS CAVOK 18/14 Q1022 NOSIG
Conditions at: ZSSS (SHANGHAI/HONGQIA, CN) observed 2230 UTC 20 October 2018
Temperature: 18.0°C (64°F)
Dewpoint: 14.0°C (57°F) [RH = 77%]
Pressure (altimeter): 30.18 inches Hg (1022.0 mb)
Winds: from the ENE (60 degrees) at 5 MPH (4 knots; 2.1 m/s)
Visibility: 6 or more miles (10+ km)
Ceiling: ceiling and visibility are OK
Clouds: unknown
Weather: no significant weather observed at this time

METAR text: ZSSS 202200Z 01002MPS CAVOK 16/13 Q1022 NOSIG
Conditions at: ZSSS (SHANGHAI/HONGQIA, CN) observed 2200 UTC 20 October 2018
Temperature: 16.0°C (61°F)
Dewpoint: 13.0°C (55°F) [RH = 82%]
Pressure (altimeter): 30.18 inches Hg (1022.0 mb)
Winds: from the N (10 degrees) at 5 MPH (4 knots; 2.1 m/s)
Visibility: 6 or more miles (10+ km)
Ceiling: ceiling and visibility are OK
Clouds: unknown
Weather: no significant weather observed at this time

Forecast for: ZSSS (SHANGHAI/HONGQIA, CN)
Text: TAF ZSSS 201911Z 2100/2124 02004MPS 6000 SCT030 TX22/2106Z TN15/2121Z
Forecast period: 0000 UTC 21 October 2018 to 0000 UTC 22 October 2018
Forecast type: FROM: standard forecast or significant change
Winds: from the NNE (20 degrees) at 9 MPH (8 knots; 4.1 m/s)
Visibility: 4 miles (6 km)
Ceiling: at least 12,000 feet AGL
Clouds: scattered clouds at 3000 feet AGL
Weather: no significant weather forecast for this period

METAR text: VHHH 202230Z 09010KT 9999 FEW025 SCT045 24/20 Q1018 NOSIG
Conditions at: VHHH (HONG KONG INTL , HK) observed 2230 UTC 20 October 2018
Temperature: 24.0°C (75°F)
Dewpoint: 20.0°C (68°F) [RH = 78%]
Pressure (altimeter): 30.06 inches Hg (1018.0 mb)
Winds: from the E (90 degrees) at 12 MPH (10 knots; 5.1 m/s)
Visibility: 6 or more miles (10+ km)
Ceiling: at least 12,000 feet AGL
Clouds: few clouds at 2500 feet AGL
scattered clouds at 4500 feet AGL
Weather: no significant weather observed at this time

METAR text: VHHH 202200Z 08010KT 9999 FEW025 SCT045 24/20 Q1018 NOSIG
Conditions at: VHHH (HONG KONG INTL , HK) observed 2200 UTC 20 October 2018
Temperature: 24.0°C (75°F)
Dewpoint: 20.0°C (68°F) [RH = 78%]
Pressure (altimeter): 30.06 inches Hg (1018.0 mb)
Winds: from the E (80 degrees) at 12 MPH (10 knots; 5.1 m/s)
Visibility: 6 or more miles (10+ km)
Ceiling: at least 12,000 feet AGL
Clouds: few clouds at 2500 feet AGL
scattered clouds at 4500 feet AGL
Weather: no significant weather observed at this time

Forecast for: AMD
Text: TAF AMD VHHH 201946Z 2019/2124 09010KT 9999 FEW025 SCT035 TX27/2107Z TN23/2022Z TN24/2122Z
Forecast period: 1900 UTC 20 October 2018 to 0000 UTC 22 October 2018
Forecast type: FROM: standard forecast or significant change
Winds: from the E (90 degrees) at 12 MPH (10 knots; 5.1 m/s)
Visibility: 6 or more miles 10+ km)
Ceiling: at least 12,000 feet AGL
Clouds: few clouds at 2500 feet AGL
scattered clouds at 3500 feet AGL
Weather: no significant weather forecast for this period
Text: TEMPO 2019/2024 4000 BR -RA
Forecast period: 1900 UTC 20 October 2018 to 0000 UTC 21 October 2018
Forecast type: TEMPORARY: The following changes expected for less than half the time period
Visibility: 2.49 miles (4.01 km)
Ceiling: unknown
Clouds: missing
Weather: BR -RA  (mist, light rain)